Time;durP1;ratioP1;P1;durP2;ratioP2;P2;SDS_P1;SDS_P2;PMS_P1;PMS_P2;Temp;Humidity;BMP_temperature;BMP_pressure;BME280_temperature;BME280_humidity;BME280_pressure;Samples;Min_cycle;Max_cycle;Signal;HPM_P1;HPM_P2
2022/03/21 00:00:52;;;;;;;62.97;26.07;;;1.00;63.10;;;;;;9870369;30;20050;-82
2022/03/21 00:05:53;;;;;;;53.33;22.30;;;0.90;63.00;;;;;;9871301;30;20079;-82
2022/03/21 00:10:55;;;;;;;49.50;22.80;;;0.70;63.70;;;;;;9870387;30;20071;-81
2022/03/21 00:15:56;;;;;;;52.80;23.70;;;0.60;64.10;;;;;;9869788;30;20392;-81
2022/03/21 00:20:57;;;;;;;48.43;21.87;;;0.60;64.60;;;;;;9869686;30;20543;-81
2022/03/21 00:25:58;;;;;;;44.60;20.90;;;0.40;65.90;;;;;;9870449;30;20039;-82
2022/03/21 00:30:59;;;;;;;45.40;18.70;;;0.00;67.10;;;;;;9870545;30;20036;-81
2022/03/21 00:36:00;;;;;;;41.90;18.97;;;-0.30;68.30;;;;;;9870085;30;20032;-81
2022/03/21 00:41:01;;;;;;;41.50;19.13;;;-0.30;68.00;;;;;;9869958;30;20097;-81
2022/03/21 00:46:02;;;;;;;45.10;18.90;;;-0.10;68.20;;;;;;9868632;30;20080;-81
2022/03/21 00:51:03;;;;;;;41.03;19.00;;;0.00;67.60;;;;;;9869700;30;20134;-82
2022/03/21 00:56:04;;;;;;;43.70;19.10;;;0.00;67.20;;;;;;9869343;30;20100;-82
2022/03/21 01:01:05;;;;;;;49.13;20.23;;;-0.10;67.50;;;;;;9869022;30;20134;-81
2022/03/21 01:06:05;;;;;;;45.70;20.17;;;-0.10;67.90;;;;;;9868490;30;20061;-82
2022/03/21 01:11:06;;;;;;;42.43;19.83;;;0.00;68.20;;;;;;9868117;30;20047;-82
2022/03/21 01:16:06;;;;;;;43.67;20.27;;;0.10;68.20;;;;;;9867814;30;20032;-82
2022/03/21 01:21:07;;;;;;;44.70;20.70;;;0.10;67.70;;;;;;9867787;30;20035;-82
2022/03/21 01:26:08;;;;;;;47.97;22.47;;;0.10;67.90;;;;;;9867808;30;20036;-82
2022/03/21 01:31:08;;;;;;;49.00;21.40;;;0.10;68.20;;;;;;9867413;30;20032;-81
2022/03/21 01:36:09;;;;;;;43.00;20.23;;;0.20;67.50;;;;;;9867959;30;20112;-82
2022/03/21 01:41:10;;;;;;;48.77;20.80;;;0.30;67.30;;;;;;9867237;30;20059;-81
2022/03/21 01:46:10;;;;;;;47.87;21.40;;;0.30;66.90;;;;;;9867444;30;20059;-81
2022/03/21 01:51:11;;;;;;;45.90;20.17;;;0.20;67.50;;;;;;9867769;30;20036;-82
2022/03/21 01:56:14;;;;;;;44.53;20.43;;;0.00;67.40;;;;;;9851496;30;20040;-81
2022/03/21 02:01:14;;;;;;;43.23;19.57;;;-0.10;67.90;;;;;;9850263;30;20044;-82
2022/03/21 02:06:16;;;;;;;43.07;21.10;;;-0.10;68.00;;;;;;9867188;30;20059;-82
2022/03/21 02:11:19;;;;;;;43.87;20.47;;;-0.20;68.00;;;;;;9865947;30;20039;-81
2022/03/21 02:16:24;;;;;;;46.73;21.40;;;-0.10;68.30;;;;;;9865298;30;20110;-82
2022/03/21 02:21:46;;;;;;;39.40;17.30;;;0.10;67.80;;;;;;9866195;30;20086;-82
2022/03/21 02:26:47;;;;;;;46.83;21.70;;;0.00;68.40;;;;;;9866567;30;20047;-82
2022/03/21 02:31:49;;;;;;;46.60;21.90;;;-0.10;68.30;;;;;;9865063;30;20032;-82
2022/03/21 02:36:55;;;;;;;45.57;22.53;;;-0.10;68.30;;;;;;9865965;30;20524;-81
2022/03/21 02:42:04;;;;;;;49.97;22.30;;;0.00;67.80;;;;;;10472935;28;20389;-82
2022/03/21 02:47:07;;;;;;;50.60;22.83;;;0.00;67.70;;;;;;10443300;28;20060;-82
2022/03/21 02:52:10;;;;;;;48.93;21.10;;;-0.10;67.70;;;;;;10444281;28;20061;-82
2022/03/21 02:57:11;;;;;;;44.53;21.07;;;-0.20;67.90;;;;;;10442945;28;20033;-82
2022/03/21 03:02:11;;;;;;;50.30;22.13;;;-0.30;68.20;;;;;;10441097;28;20462;-82
2022/03/21 03:07:12;;;;;;;47.73;20.73;;;-0.40;68.90;;;;;;10432135;28;20037;-82
2022/03/21 03:12:13;;;;;;;49.97;21.67;;;-0.50;69.50;;;;;;10435248;28;20048;-82
2022/03/21 03:17:13;;;;;;;45.97;20.60;;;-0.40;69.10;;;;;;10442677;28;20106;-82
2022/03/21 03:22:16;;;;;;;41.57;20.17;;;-0.60;70.00;;;;;;10442867;28;20064;-82
2022/03/21 03:27:17;;;;;;;47.40;19.90;;;-0.80;70.40;;;;;;10414689;28;20029;-82
2022/03/21 03:32:18;;;;;;;44.00;20.77;;;-0.80;70.80;;;;;;10442449;28;20040;-82
2022/03/21 03:37:19;;;;;;;43.90;21.30;;;-0.90;71.30;;;;;;10440132;28;20712;-82
2022/03/21 03:42:20;;;;;;;48.33;21.63;;;-1.10;71.80;;;;;;10410268;28;20056;-82
2022/03/21 03:47:21;;;;;;;46.10;19.17;;;-1.20;72.00;;;;;;10439963;28;20021;-82
2022/03/21 03:52:22;;;;;;;43.50;19.97;;;-1.20;72.10;;;;;;10399475;28;20038;-83
2022/03/21 03:57:22;;;;;;;47.53;21.97;;;-1.10;72.20;;;;;;10398391;28;20036;-85
2022/03/21 04:02:23;;;;;;;47.17;21.03;;;-1.10;72.00;;;;;;10393928;28;20037;-84
2022/03/21 04:07:24;;;;;;;55.13;22.03;;;-1.00;72.60;;;;;;10384144;28;20030;-83
2022/03/21 04:12:25;;;;;;;50.67;22.47;;;-0.70;71.80;;;;;;10386014;28;20042;-85
2022/03/21 04:17:26;;;;;;;55.57;23.60;;;-0.70;71.50;;;;;;10403689;28;20033;-84
2022/03/21 04:22:26;;;;;;;45.67;21.83;;;-0.80;71.90;;;;;;10383323;28;20037;-84
2022/03/21 04:27:27;;;;;;;44.53;20.57;;;-0.80;71.90;;;;;;10411902;28;20409;-84
2022/03/21 04:32:28;;;;;;;53.77;23.63;;;-0.80;71.60;;;;;;10401022;28;20037;-84
2022/03/21 04:37:29;;;;;;;52.37;23.23;;;-0.80;71.60;;;;;;10409585;28;20148;-84
2022/03/21 04:42:30;;;;;;;50.37;22.50;;;-0.80;71.90;;;;;;10409597;28;20496;-84
2022/03/21 04:47:31;;;;;;;51.57;22.30;;;-0.70;71.60;;;;;;10409395;28;20061;-85
2022/03/21 04:52:32;;;;;;;53.03;23.07;;;-0.70;71.80;;;;;;10411491;28;20060;-84
2022/03/21 04:57:34;;;;;;;48.37;22.30;;;-0.90;72.10;;;;;;10404497;28;20040;-83
2022/03/21 05:02:34;;;;;;;50.27;22.67;;;-1.00;72.70;;;;;;10384862;28;20085;-82
2022/03/21 05:07:40;;;;;;;48.33;22.63;;;-1.00;73.00;;;;;;10371230;28;20030;-83
2022/03/21 05:12:41;;;;;;;;;;;-1.00;73.10;;;;;;10369198;28;20059;-82
2022/03/21 05:17:43;;;;;;;55.77;24.57;;;-1.10;75.40;;;;;;10408343;28;19921;-82
2022/03/21 05:30:57;;;;;;;50.20;23.43;;;-1.20;73.70;;;;;;10397692;28;20113;-85
2022/03/21 05:38:45;;;;;;;53.33;21.20;;;-1.10;74.90;;;;;;10414411;28;20058;-84
2022/03/21 05:43:46;;;;;;;49.20;22.93;;;-0.90;74.80;;;;;;10408218;28;20377;-84
2022/03/21 05:48:50;;;;;;;44.37;20.50;;;-0.70;73.70;;;;;;10407950;28;20033;-83
2022/03/21 05:53:51;;;;;;;50.13;22.90;;;-0.50;73.00;;;;;;10413413;28;20070;-84
2022/03/21 05:58:53;;;;;;;51.03;23.03;;;-0.30;73.10;;;;;;10408580;28;20049;-84
2022/03/21 06:03:55;;;;;;;54.03;25.10;;;-0.10;72.00;;;;;;10406849;28;20079;-84
2022/03/21 06:08:56;;;;;;;56.47;25.53;;;0.10;71.40;;;;;;10429098;28;20500;-83
2022/03/21 06:13:56;;;;;;;59.27;25.13;;;0.20;71.20;;;;;;10443794;28;20052;-83
2022/03/21 06:19:00;;;;;;;57.53;26.53;;;0.40;71.80;;;;;;10411467;28;20437;-83
2022/03/21 06:24:00;;;;;;;55.43;26.13;;;0.60;70.90;;;;;;10415996;28;20025;-83
2022/03/21 06:29:01;;;;;;;55.20;25.23;;;0.70;70.80;;;;;;10398962;28;20416;-83
2022/03/21 06:34:03;;;;;;;47.67;22.97;;;1.00;70.50;;;;;;10411331;28;20384;-83
2022/03/21 06:39:05;;;;;;;51.83;25.20;;;1.20;70.70;;;;;;10413430;28;20057;-82
2022/03/21 06:44:06;;;;;;;53.70;25.60;;;1.30;69.80;;;;;;10405407;28;20053;-82
2022/03/21 06:49:07;;;;;;;56.13;26.57;;;1.60;69.50;;;;;;10403842;28;20021;-82
2022/03/21 06:54:08;;;;;;;67.90;31.73;;;1.90;69.20;;;;;;10405369;28;20029;-83
2022/03/21 06:59:08;;;;;;;68.30;32.93;;;2.10;69.10;;;;;;10404384;28;20033;-83
2022/03/21 07:04:09;;;;;;;57.67;29.57;;;2.40;68.50;;;;;;10402658;28;20544;-83
2022/03/21 07:09:10;;;;;;;73.23;34.00;;;2.80;67.40;;;;;;10408071;28;20033;-83
2022/03/21 07:14:10;;;;;;;63.67;30.00;;;3.10;66.60;;;;;;10429944;28;20027;-83
2022/03/21 07:19:11;;;;;;;56.63;26.47;;;3.40;67.00;;;;;;10422131;28;20504;-83
2022/03/21 07:24:12;;;;;;;55.97;26.83;;;3.90;65.20;;;;;;10420756;28;20092;-83
2022/03/21 07:29:13;;;;;;;78.60;27.17;;;4.30;65.10;;;;;;10427320;28;20020;-84
2022/03/21 07:34:14;;;;;;;53.20;25.07;;;4.70;65.00;;;;;;10414113;28;20040;-84
2022/03/21 07:39:15;;;;;;;54.63;24.97;;;5.20;63.10;;;;;;10413242;28;20054;-84
2022/03/21 07:47:17;;;;;;;41.40;20.03;;;5.80;62.60;;;;;;10412621;28;20347;-85
2022/03/21 07:49:36;;;;;;;35.50;17.83;;;6.30;61.20;;;;;;10411026;28;20393;-84
2022/03/21 07:54:37;;;;;;;31.90;16.73;;;6.80;59.00;;;;;;10409245;28;20027;-85
2022/03/21 07:59:38;;;;;;;37.17;17.13;;;7.20;58.40;;;;;;10413023;28;20048;-84
2022/03/21 08:04:39;;;;;;;34.70;15.00;;;7.70;58.40;;;;;;10414295;28;20539;-85
2022/03/21 08:09:39;;;;;;;34.63;16.13;;;8.00;55.50;;;;;;10413476;28;20033;-83
2022/03/21 08:14:40;;;;;;;42.63;18.30;;;8.40;55.50;;;;;;10412285;28;20460;-85
2022/03/21 08:19:41;;;;;;;25.37;13.10;;;8.70;55.60;;;;;;10413501;28;20033;-87
2022/03/21 08:24:41;;;;;;;30.80;14.90;;;9.00;53.50;;;;;;10412812;28;20082;-85
2022/03/21 08:29:42;;;;;;;42.20;21.43;;;9.20;53.30;;;;;;10411601;28;20036;-85
2022/03/21 08:34:43;;;;;;;26.60;14.33;;;9.50;51.80;;;;;;10412956;28;20105;-85
2022/03/21 08:39:43;;;;;;;29.37;15.70;;;9.60;51.70;;;;;;10412496;28;20062;-84
2022/03/21 08:44:45;;;;;;;33.37;17.07;;;9.80;50.90;;;;;;10411432;28;20163;-84
2022/03/21 08:49:45;;;;;;;30.70;15.90;;;10.10;52.20;;;;;;10411215;28;20021;-86
2022/03/21 08:54:46;;;;;;;41.23;19.57;;;10.30;51.40;;;;;;10410471;28;20025;-85
2022/03/21 08:59:47;;;;;;;33.20;16.23;;;10.70;52.20;;;;;;10411186;28;20041;-85
2022/03/21 09:04:48;;;;;;;24.92;13.45;;;10.90;50.50;;;;;;10411512;28;20029;-85
2022/03/21 09:09:49;;;;;;;26.85;13.48;;;11.30;50.00;;;;;;10410206;28;20035;-85
2022/03/21 09:14:49;;;;;;;22.90;12.25;;;11.50;48.70;;;;;;10409255;28;20044;-85
2022/03/21 09:19:50;;;;;;;17.45;10.63;;;11.80;48.20;;;;;;10411043;28;20049;-85
2022/03/21 09:24:51;;;;;;;23.60;11.13;;;11.80;48.00;;;;;;10409356;28;20541;-85
2022/03/21 09:29:52;;;;;;;18.27;10.52;;;12.10;48.60;;;;;;10410622;28;20040;-86
2022/03/21 09:34:53;;;;;;;22.65;11.98;;;12.30;46.00;;;;;;10409373;28;20030;-85
2022/03/21 09:39:53;;;;;;;17.70;9.30;;;12.50;47.20;;;;;;10409869;28;20065;-84
2022/03/21 09:44:54;;;;;;;19.25;10.57;;;12.60;46.20;;;;;;10410458;28;20527;-85
2022/03/21 09:49:57;;;;;;;19.30;9.55;;;12.90;46.10;;;;;;10409555;28;20298;-86
2022/03/21 09:54:58;;;;;;;22.30;11.02;;;12.80;44.00;;;;;;10409838;28;20107;-86
2022/03/21 09:59:59;;;;;;;17.98;9.00;;;12.90;44.50;;;;;;10409024;28;20059;-86
2022/03/21 10:05:01;;;;;;;20.58;10.60;;;13.10;45.90;;;;;;10409317;28;20030;-85
2022/03/21 10:10:18;;;;;;;20.20;10.30;;;13.30;42.20;;;;;;10408806;28;20029;-88
2022/03/21 10:15:24;;;;;;;16.55;10.00;;;13.70;43.20;;;;;;10409814;28;20083;-86
2022/03/21 10:20:35;;;;;;;17.23;9.82;;;13.60;42.40;;;;;;10407972;28;20108;-86
2022/03/21 10:25:36;;;;;;;16.80;8.32;;;13.70;42.30;;;;;;10409364;28;20104;-87
2022/03/21 10:30:45;;;;;;;24.48;11.73;;;13.80;43.50;;;;;;10408620;28;20460;-86
2022/03/21 10:35:46;;;;;;;13.35;8.05;;;13.90;41.40;;;;;;10408369;28;20052;-86
2022/03/21 10:40:48;;;;;;;10.43;6.40;;;13.90;42.80;;;;;;10408588;28;20079;-86
2022/03/21 10:45:51;;;;;;;19.55;9.45;;;14.10;41.30;;;;;;10408451;28;20056;-86
2022/03/21 10:50:54;;;;;;;15.82;8.90;;;14.20;41.60;;;;;;10406818;28;20106;-85
2022/03/21 10:55:58;;;;;;;17.33;8.93;;;13.70;40.70;;;;;;10408616;28;20694;-86
2022/03/21 11:01:09;;;;;;;22.33;13.73;;;13.70;42.20;;;;;;10411255;28;20057;-86
2022/03/21 11:06:13;;;;;;;27.50;15.38;;;14.00;42.00;;;;;;10416549;28;20412;-84
2022/03/21 11:11:15;;;;;;;12.35;7.63;;;14.20;41.80;;;;;;10416410;28;20037;-85
2022/03/21 11:16:19;;;;;;;15.02;7.65;;;14.20;41.20;;;;;;10414948;28;20470;-85
2022/03/21 11:21:20;;;;;;;16.88;10.32;;;14.00;41.00;;;;;;10399257;28;20077;-86
2022/03/21 11:26:31;;;;;;;14.38;8.05;;;14.30;41.80;;;;;;10416373;28;20076;-87
2022/03/21 11:32:01;;;;;;;20.55;8.85;;;14.30;40.90;;;;;;10415291;28;20033;-87
2022/03/21 11:37:02;;;;;;;16.25;9.02;;;14.40;40.00;;;;;;10413973;28;20120;-86
2022/03/21 11:42:10;;;;;;;22.17;10.43;;;14.50;42.00;;;;;;10413936;28;20461;-87
2022/03/21 11:47:25;;;;;;;13.50;7.57;;;14.70;40.60;;;;;;10415237;28;20032;-87
2022/03/21 11:52:25;;;;;;;15.25;8.50;;;14.70;41.80;;;;;;10414711;28;20022;-85
2022/03/21 11:57:28;;;;;;;15.32;7.00;;;14.80;40.40;;;;;;10414150;28;20108;-86
2022/03/21 12:02:28;;;;;;;13.23;7.28;;;14.70;40.10;;;;;;10414719;28;20731;-85
2022/03/21 12:07:30;;;;;;;17.00;8.80;;;14.80;41.00;;;;;;10413802;28;20084;-85
2022/03/21 12:12:40;;;;;;;20.98;8.80;;;14.60;39.30;;;;;;10413616;28;20033;-86
2022/03/21 12:17:47;;;;;;;13.38;7.95;;;14.60;40.30;;;;;;10412638;28;20077;-86
2022/03/21 12:22:48;;;;;;;11.98;7.63;;;14.40;39.50;;;;;;10413693;28;20067;-87
2022/03/21 12:27:52;;;;;;;24.48;13.27;;;14.60;40.50;;;;;;10411984;28;20117;-86
2022/03/21 12:33:02;;;;;;;16.92;8.98;;;14.90;40.80;;;;;;10413666;28;20029;-86
2022/03/21 12:38:07;;;;;;;19.20;7.93;;;14.90;38.70;;;;;;10412952;28;20128;-86
2022/03/21 12:43:07;;;;;;;17.50;9.45;;;14.80;40.50;;;;;;10411617;28;20437;-86
2022/03/21 12:48:09;;;;;;;18.63;8.05;;;14.90;40.30;;;;;;10412863;28;20021;-87
2022/03/21 12:53:11;;;;;;;20.45;9.05;;;15.10;39.50;;;;;;10412462;28;20284;-86
2022/03/21 12:58:14;;;;;;;13.25;6.32;;;15.20;40.80;;;;;;10412557;28;20469;-86
2022/03/21 13:03:15;;;;;;;12.45;6.65;;;15.30;40.50;;;;;;10412233;28;20052;-85
2022/03/21 13:13:41;;;;;;;13.93;7.40;;;15.30;41.10;;;;;;10411499;28;20029;-86
2022/03/21 13:18:41;;;;;;;;;;;15.60;40.70;;;;;;10412259;28;20107;-87
2022/03/21 13:23:43;;;;;;;17.08;9.25;;;15.40;39.30;;;;;;10390689;28;19909;-86
2022/03/21 13:28:44;;;;;;;16.80;8.68;;;15.20;39.10;;;;;;10368478;28;20022;-85
2022/03/21 13:34:12;;;;;;;12.50;8.15;;;15.30;39.90;;;;;;10369577;28;20029;-86
2022/03/21 13:39:12;;;;;;;12.40;7.65;;;15.10;38.90;;;;;;10368187;28;20080;-86
2022/03/21 13:44:13;;;;;;;14.77;8.73;;;14.80;38.60;;;;;;10370136;28;20022;-86
2022/03/21 13:49:13;;;;;;;18.08;9.52;;;14.70;41.40;;;;;;10369338;28;20493;-86
2022/03/21 13:54:15;;;;;;;15.60;8.57;;;14.80;39.50;;;;;;10380574;28;20037;-86
2022/03/21 13:59:17;;;;;;;15.85;9.50;;;14.90;39.50;;;;;;10389528;28;20045;-87
2022/03/21 14:04:25;;;;;;;15.98;9.38;;;15.00;40.70;;;;;;10407604;28;20103;-86
2022/03/21 14:09:28;;;;;;;18.38;10.00;;;14.90;38.70;;;;;;10400401;28;20212;-85
2022/03/21 14:14:28;;;;;;;14.85;8.68;;;14.80;40.30;;;;;;10368518;28;20116;-87
2022/03/21 14:19:30;;;;;;;20.25;8.98;;;14.80;40.10;;;;;;10397304;28;20037;-86
2022/03/21 14:24:31;;;;;;;16.98;8.32;;;14.80;39.90;;;;;;10409292;28;20105;-86
2022/03/21 14:29:32;;;;;;;13.10;8.38;;;14.80;39.80;;;;;;10385779;28;20113;-86
2022/03/21 14:34:33;;;;;;;13.85;7.85;;;14.50;38.60;;;;;;10367432;28;20034;-85
2022/03/21 14:39:34;;;;;;;35.58;19.38;;;14.40;39.20;;;;;;10406659;28;20413;-84
2022/03/21 14:44:34;;;;;;;123.80;74.10;;;14.10;38.80;;;;;;10374249;28;20065;-86
2022/03/21 14:49:35;;;;;;;33.42;16.88;;;13.90;39.30;;;;;;10367082;28;20385;-85
2022/03/21 14:54:36;;;;;;;37.65;16.40;;;13.90;40.90;;;;;;10394846;28;20024;-85
2022/03/21 14:59:37;;;;;;;82.57;44.67;;;14.00;41.20;;;;;;10405989;28;20030;-85
2022/03/21 15:04:38;;;;;;;344.17;226.68;;;13.80;39.50;;;;;;10406146;28;20018;-87
2022/03/21 15:10:25;;;;;;;102.32;57.67;;;13.70;39.50;;;;;;10369784;28;20028;-84
2022/03/21 15:15:00;;;;;;;49.15;22.80;;;13.60;40.30;;;;;;10375806;28;20034;-84
2022/03/21 15:20:02;;;;;;;193.43;91.90;;;13.60;40.90;;;;;;10367906;28;20490;-84
2022/03/21 15:25:04;;;;;;;281.92;150.10;;;13.50;41.30;;;;;;10367798;28;20523;-84
2022/03/21 15:30:07;;;;;;;58.50;31.88;;;13.40;40.20;;;;;;10401149;28;20503;-85
2022/03/21 15:35:09;;;;;;;30.98;16.70;;;13.30;40.60;;;;;;10405952;28;20041;-85
2022/03/21 15:45:29;;;;;;;19.40;12.15;;;13.10;40.60;;;;;;10391384;28;20034;-85
2022/03/21 15:50:32;;;;;;;21.40;12.38;;;12.90;40.80;;;;;;10390213;28;20112;-83
2022/03/21 15:55:34;;;;;;;20.95;11.77;;;12.70;41.40;;;;;;10414932;28;20030;-89
2022/03/21 16:00:38;;;;;;;26.95;12.40;;;12.60;42.10;;;;;;10413792;28;20048;-89
2022/03/21 16:05:39;;;;;;;22.15;12.38;;;12.40;42.20;;;;;;10395903;28;20037;-82
2022/03/21 16:10:39;;;;;;;53.50;25.05;;;12.20;41.50;;;;;;10371628;28;20037;-84
2022/03/21 16:15:41;;;;;;;26.38;13.98;;;12.10;42.90;;;;;;10372038;28;20037;-87
2022/03/21 16:20:42;;;;;;;33.55;17.60;;;11.90;42.30;;;;;;10389436;28;20425;-84
2022/03/21 16:25:44;;;;;;;58.10;20.77;;;11.80;42.40;;;;;;10393414;28;20026;-83
2022/03/21 16:30:45;;;;;;;40.92;17.88;;;11.60;43.00;;;;;;10385836;28;20028;-84
2022/03/21 16:35:47;;;;;;;32.75;14.98;;;11.30;43.80;;;;;;10408274;28;20025;-84
2022/03/21 16:40:47;;;;;;;36.25;19.48;;;11.00;44.40;;;;;;10411801;28;20060;-84
2022/03/21 16:45:48;;;;;;;31.80;16.83;;;10.70;44.40;;;;;;10390589;28;20040;-82
2022/03/21 16:50:50;;;;;;;34.53;17.53;;;10.40;45.50;;;;;;10406955;28;20155;-82
2022/03/21 16:55:51;;;;;;;29.53;15.23;;;10.10;46.40;;;;;;10377782;28;20037;-84
2022/03/21 17:00:53;;;;;;;23.13;12.70;;;9.60;47.20;;;;;;10408636;28;20044;-83
2022/03/21 17:05:55;;;;;;;28.33;14.47;;;9.30;47.90;;;;;;10399143;28;20026;-84
2022/03/21 17:10:59;;;;;;;29.87;13.57;;;8.90;48.70;;;;;;10403632;28;20029;-81
2022/03/21 17:16:00;;;;;;;75.13;31.20;;;8.60;49.00;;;;;;10391823;28;20058;-83
2022/03/21 17:26:24;;;;;;;29.73;13.80;;;8.20;49.90;;;;;;10392872;28;20061;-85
2022/03/21 17:31:25;;;;;;;27.27;13.23;;;8.20;50.60;;;;;;10377955;28;20065;-83
2022/03/21 17:36:26;;;;;;;27.90;12.40;;;8.10;50.60;;;;;;10387745;28;20146;-83
2022/03/21 17:41:27;;;;;;;29.40;13.73;;;8.00;50.70;;;;;;10396412;28;20045;-83
2022/03/21 17:46:28;;;;;;;28.97;12.97;;;7.80;51.20;;;;;;10393640;28;20103;-81
2022/03/21 17:51:29;;;;;;;28.83;13.57;;;7.70;51.40;;;;;;10400352;28;20036;-83
2022/03/21 17:56:29;;;;;;;33.17;14.50;;;7.50;51.80;;;;;;10409009;28;20043;-81
2022/03/21 18:01:30;;;;;;;30.37;15.60;;;7.60;51.30;;;;;;10399680;28;20169;-84
2022/03/21 18:06:31;;;;;;;40.50;19.37;;;7.70;51.60;;;;;;10410869;28;20104;-83
2022/03/21 18:11:32;;;;;;;37.30;18.47;;;7.60;51.40;;;;;;10408212;28;20047;-87
2022/03/21 18:16:34;;;;;;;42.70;21.43;;;7.50;51.30;;;;;;10419648;28;20033;-83
2022/03/21 18:21:35;;;;;;;44.53;20.60;;;7.40;51.60;;;;;;10403936;28;20052;-82
2022/03/21 18:26:35;;;;;;;40.53;21.47;;;7.40;51.80;;;;;;10399104;28;20112;-82
2022/03/21 18:31:37;;;;;;;40.80;19.80;;;7.20;52.30;;;;;;10406482;28;20022;-81
2022/03/21 18:36:38;;;;;;;43.00;19.67;;;7.20;51.90;;;;;;10401596;28;20039;-81
2022/03/21 18:41:39;;;;;;;87.23;39.13;;;7.30;51.90;;;;;;10398596;28;20057;-82
2022/03/21 18:46:40;;;;;;;81.40;36.33;;;7.10;52.60;;;;;;10402382;28;20092;-82
2022/03/21 18:51:40;;;;;;;81.80;37.63;;;6.80;53.20;;;;;;10405435;28;20108;-81
2022/03/21 18:56:41;;;;;;;69.57;30.60;;;6.50;53.90;;;;;;10381090;28;20037;-80
2022/03/21 19:01:41;;;;;;;64.13;29.80;;;6.40;54.10;;;;;;10382592;28;20121;-81
2022/03/21 19:06:42;;;;;;;56.60;28.10;;;6.20;54.50;;;;;;10386140;28;20034;-82
2022/03/21 19:11:44;;;;;;;49.67;24.57;;;6.10;54.50;;;;;;10394834;28;20400;-80
2022/03/21 19:16:45;;;;;;;55.10;26.80;;;6.10;54.60;;;;;;10398522;28;20056;-80
2022/03/21 19:21:47;;;;;;;54.83;25.57;;;6.10;54.40;;;;;;10408166;28;20048;-81
2022/03/21 19:26:48;;;;;;;58.00;27.63;;;6.10;54.60;;;;;;10398309;28;20041;-81
2022/03/21 19:31:49;;;;;;;63.27;28.53;;;6.10;54.20;;;;;;10392299;28;20079;-81
2022/03/21 19:36:50;;;;;;;63.60;29.10;;;6.20;54.20;;;;;;10384928;28;20127;-83
2022/03/21 19:41:50;;;;;;;55.57;26.87;;;6.20;54.10;;;;;;10410609;28;20069;-81
2022/03/21 19:46:52;;;;;;;70.43;31.30;;;6.20;54.20;;;;;;10408629;28;20029;-80
2022/03/21 19:51:53;;;;;;;74.10;33.03;;;6.10;54.50;;;;;;10395017;28;20029;-79
2022/03/21 19:56:54;;;;;;;81.43;36.17;;;5.90;54.80;;;;;;10403152;28;20033;-82
2022/03/21 20:01:55;;;;;;;81.07;36.83;;;5.80;55.00;;;;;;10411198;28;20033;-82
2022/03/21 20:06:56;;;;;;;76.57;33.83;;;5.90;55.10;;;;;;10400383;28;20496;-82
2022/03/21 20:11:56;;;;;;;69.90;32.73;;;5.90;55.00;;;;;;10413295;28;20033;-81
2022/03/21 20:16:57;;;;;;;73.43;35.00;;;5.90;55.00;;;;;;10402427;28;20428;-80
2022/03/21 20:21:58;;;;;;;67.17;31.00;;;5.80;55.20;;;;;;10400180;28;20041;-82
2022/03/21 20:26:59;;;;;;;69.10;29.97;;;5.90;54.90;;;;;;10407008;28;20036;-81
2022/03/21 20:32:00;;;;;;;70.60;31.60;;;5.90;54.80;;;;;;10386949;28;20493;-84
2022/03/21 20:37:01;;;;;;;77.10;32.37;;;6.00;54.70;;;;;;10397017;28;20034;-81
2022/03/21 20:42:03;;;;;;;57.97;27.67;;;6.00;54.60;;;;;;10411295;28;20415;-82
2022/03/21 20:47:05;;;;;;;59.63;28.07;;;6.00;54.40;;;;;;10409327;28;20025;-81
2022/03/21 20:52:05;;;;;;;57.87;27.00;;;6.10;54.20;;;;;;10398793;28;20013;-83
2022/03/21 20:57:06;;;;;;;69.13;29.90;;;6.10;54.30;;;;;;10403778;28;20038;-82
2022/03/21 21:02:07;;;;;;;66.57;30.70;;;6.10;54.70;;;;;;10405523;28;20060;-81
2022/03/21 21:07:08;;;;;;;67.37;29.60;;;5.90;54.80;;;;;;10391623;28;20030;-81
2022/03/21 21:12:09;;;;;;;65.83;28.13;;;5.80;54.90;;;;;;10385619;28;20017;-85
2022/03/21 21:17:11;;;;;;;65.03;28.90;;;5.70;55.40;;;;;;10386483;28;20082;-84
2022/03/21 21:22:13;;;;;;;63.87;28.43;;;5.60;55.60;;;;;;10408537;28;20570;-82
2022/03/21 21:27:13;;;;;;;58.97;26.13;;;5.50;55.70;;;;;;10408081;28;20036;-82
2022/03/21 21:32:14;;;;;;;59.10;25.57;;;5.40;55.80;;;;;;10408913;28;20386;-82
2022/03/21 21:37:15;;;;;;;60.17;27.27;;;5.50;55.90;;;;;;10409959;28;20042;-82
2022/03/21 21:42:15;;;;;;;58.13;25.73;;;5.50;55.80;;;;;;10390447;28;20495;-82
2022/03/21 21:47:16;;;;;;;61.60;27.17;;;5.50;55.90;;;;;;10403566;28;20437;-82
2022/03/21 21:52:17;;;;;;;61.03;27.40;;;5.40;56.10;;;;;;10369041;28;20075;-82
2022/03/21 21:57:18;;;;;;;57.80;25.17;;;5.10;57.30;;;;;;10406553;28;20029;-82
2022/03/21 22:02:23;;;;;;;60.10;26.67;;;4.80;58.20;;;;;;10397839;28;20100;-82
2022/03/21 22:07:24;;;;;;;63.80;26.47;;;4.60;58.70;;;;;;10368914;28;20416;-84
2022/03/21 22:12:24;;;;;;;65.20;27.23;;;4.60;58.90;;;;;;10377472;28;20060;-82
2022/03/21 22:17:25;;;;;;;62.80;26.87;;;4.70;58.90;;;;;;10397041;28;20041;-82
2022/03/21 22:22:26;;;;;;;76.03;32.03;;;4.80;59.00;;;;;;10368129;28;20037;-82
2022/03/21 22:27:27;;;;;;;76.00;33.03;;;4.70;59.00;;;;;;10371175;28;20030;-82
2022/03/21 22:32:28;;;;;;;73.87;28.93;;;4.50;59.90;;;;;;10384850;28;20041;-81
2022/03/21 22:37:29;;;;;;;72.10;29.67;;;4.20;60.40;;;;;;10408409;28;20102;-84
2022/03/21 22:47:49;;;;;;;62.23;26.60;;;3.90;62.50;;;;;;10392101;28;20112;-82
2022/03/21 22:52:49;;;;;;;68.00;29.43;;;3.60;63.00;;;;;;10382803;28;20116;-82
2022/03/21 22:57:50;;;;;;;68.30;28.23;;;3.30;62.90;;;;;;10413854;28;20021;-83
2022/03/21 23:02:52;;;;;;;65.60;28.17;;;3.20;62.60;;;;;;10415791;28;20726;-82
2022/03/21 23:07:52;;;;;;;59.77;26.47;;;3.00;63.20;;;;;;10402082;28;20022;-83
2022/03/21 23:12:54;;;;;;;57.30;24.33;;;2.90;64.00;;;;;;10416203;28;20486;-85
2022/03/21 23:17:54;;;;;;;60.87;25.97;;;2.90;64.80;;;;;;10414376;28;20087;-82
2022/03/21 23:22:56;;;;;;;55.80;24.83;;;3.00;65.50;;;;;;10416186;28;20167;-82
2022/03/21 23:27:57;;;;;;;56.30;25.63;;;3.00;65.30;;;;;;10412754;28;20026;-82
2022/03/21 23:32:57;;;;;;;59.63;26.67;;;3.00;64.90;;;;;;10414657;28;20033;-82
2022/03/21 23:37:58;;;;;;;49.93;24.23;;;3.00;65.20;;;;;;10413852;28;20058;-82
2022/03/21 23:42:59;;;;;;;54.77;23.37;;;3.00;64.70;;;;;;10413380;28;20037;-81
2022/03/21 23:48:00;;;;;;;58.47;24.77;;;3.00;65.50;;;;;;10413013;28;20034;-83
2022/03/21 23:53:00;;;;;;;58.03;24.93;;;2.80;66.00;;;;;;10394847;28;20034;-83
2022/03/21 23:58:05;;;;;;;55.23;24.00;;;2.60;66.40;;;;;;10373443;28;20382;-83
